sensor_id;sensor_type;location;lat;lon;timestamp;temperature;humidity
70079;DHT22;57451;52.496;13.456;2022-12-07T00:01:53;3.80;79.30
70079;DHT22;57451;52.496;13.456;2022-12-07T00:04:20;3.70;79.10
70079;DHT22;57451;52.496;13.456;2022-12-07T00:06:51;3.70;79.10
70079;DHT22;57451;52.496;13.456;2022-12-07T00:09:21;3.60;79.30
70079;DHT22;57451;52.496;13.456;2022-12-07T00:11:50;3.60;79.30
70079;DHT22;57451;52.496;13.456;2022-12-07T00:14:18;3.60;79.20
70079;DHT22;57451;52.496;13.456;2022-12-07T00:16:45;3.60;78.90
70079;DHT22;57451;52.496;13.456;2022-12-07T00:19:16;3.50;79.00
70079;DHT22;57451;52.496;13.456;2022-12-07T00:21:43;3.40;79.20
70079;DHT22;57451;52.496;13.456;2022-12-07T00:24:11;3.40;79.40
70079;DHT22;57451;52.496;13.456;2022-12-07T00:26:40;3.40;79.40
70079;DHT22;57451;52.496;13.456;2022-12-07T00:29:12;3.40;78.80
70079;DHT22;57451;52.496;13.456;2022-12-07T00:31:40;3.30;79.20
70079;DHT22;57451;52.496;13.456;2022-12-07T00:34:12;3.30;78.80
70079;DHT22;57451;52.496;13.456;2022-12-07T00:36:41;3.30;78.20
70079;DHT22;57451;52.496;13.456;2022-12-07T00:39:08;3.20;77.70
70079;DHT22;57451;52.496;13.456;2022-12-07T00:41:36;3.10;78.00
70079;DHT22;57451;52.496;13.456;2022-12-07T00:44:03;3.20;78.40
70079;DHT22;57451;52.496;13.456;2022-12-07T00:46:31;3.30;77.90
70079;DHT22;57451;52.496;13.456;2022-12-07T00:48:58;3.30;78.00
70079;DHT22;57451;52.496;13.456;2022-12-07T00:51:25;3.30;77.30
70079;DHT22;57451;52.496;13.456;2022-12-07T00:53:54;3.30;76.80
70079;DHT22;57451;52.496;13.456;2022-12-07T00:56:23;3.20;76.50
70079;DHT22;57451;52.496;13.456;2022-12-07T00:58:52;3.20;77.00
70079;DHT22;57451;52.496;13.456;2022-12-07T01:01:20;3.20;77.00
70079;DHT22;57451;52.496;13.456;2022-12-07T01:03:47;3.00;76.40
70079;DHT22;57451;52.496;13.456;2022-12-07T01:06:16;3.00;77.00
70079;DHT22;57451;52.496;13.456;2022-12-07T01:08:44;3.00;76.70
70079;DHT22;57451;52.496;13.456;2022-12-07T01:11:14;3.00;76.90
70079;DHT22;57451;52.496;13.456;2022-12-07T01:13:42;3.00;76.50
70079;DHT22;57451;52.496;13.456;2022-12-07T01:16:11;3.10;76.50
70079;DHT22;57451;52.496;13.456;2022-12-07T01:18:40;3.00;75.70
70079;DHT22;57451;52.496;13.456;2022-12-07T01:21:11;2.90;75.30
70079;DHT22;57451;52.496;13.456;2022-12-07T01:23:39;2.90;75.90
70079;DHT22;57451;52.496;13.456;2022-12-07T01:26:10;2.90;76.00
70079;DHT22;57451;52.496;13.456;2022-12-07T01:28:39;2.90;76.00
70079;DHT22;57451;52.496;13.456;2022-12-07T01:31:08;2.80;75.60
70079;DHT22;57451;52.496;13.456;2022-12-07T01:33:39;2.80;75.80
70079;DHT22;57451;52.496;13.456;2022-12-07T01:36:08;2.80;76.00
70079;DHT22;57451;52.496;13.456;2022-12-07T01:38:35;2.90;76.10
70079;DHT22;57451;52.496;13.456;2022-12-07T01:41:03;2.90;76.00
70079;DHT22;57451;52.496;13.456;2022-12-07T01:43:32;2.90;75.80
70079;DHT22;57451;52.496;13.456;2022-12-07T01:46:02;2.90;75.40
70079;DHT22;57451;52.496;13.456;2022-12-07T01:48:32;2.90;75.70
70079;DHT22;57451;52.496;13.456;2022-12-07T01:51:04;2.80;75.30
70079;DHT22;57451;52.496;13.456;2022-12-07T01:53:34;2.80;75.40
70079;DHT22;57451;52.496;13.456;2022-12-07T01:56:02;2.80;75.70
70079;DHT22;57451;52.496;13.456;2022-12-07T01:58:30;2.90;75.80
70079;DHT22;57451;52.496;13.456;2022-12-07T02:00:57;2.90;75.60
70079;DHT22;57451;52.496;13.456;2022-12-07T02:03:30;2.90;75.30
70079;DHT22;57451;52.496;13.456;2022-12-07T02:05:59;2.90;75.70
70079;DHT22;57451;52.496;13.456;2022-12-07T02:08:27;2.90;75.10
70079;DHT22;57451;52.496;13.456;2022-12-07T02:10:54;2.90;75.00
70079;DHT22;57451;52.496;13.456;2022-12-07T02:13:26;3.00;75.50
70079;DHT22;57451;52.496;13.456;2022-12-07T02:16:08;3.00;75.30
70079;DHT22;57451;52.496;13.456;2022-12-07T02:18:47;2.90;75.40
70079;DHT22;57451;52.496;13.456;2022-12-07T02:21:20;2.90;75.10
70079;DHT22;57451;52.496;13.456;2022-12-07T02:29:54;2.80;75.40
70079;DHT22;57451;52.496;13.456;2022-12-07T02:32:27;2.90;75.20
70079;DHT22;57451;52.496;13.456;2022-12-07T02:34:58;2.90;75.00
70079;DHT22;57451;52.496;13.456;2022-12-07T02:37:35;2.90;75.00
70079;DHT22;57451;52.496;13.456;2022-12-07T02:40:08;2.80;75.20
70079;DHT22;57451;52.496;13.456;2022-12-07T02:42:40;2.80;75.00
70079;DHT22;57451;52.496;13.456;2022-12-07T02:45:13;2.70;75.10
70079;DHT22;57451;52.496;13.456;2022-12-07T02:47:41;2.70;75.00
70079;DHT22;57451;52.496;13.456;2022-12-07T02:50:10;2.70;75.40
70079;DHT22;57451;52.496;13.456;2022-12-07T02:52:38;2.70;75.30
70079;DHT22;57451;52.496;13.456;2022-12-07T02:55:07;2.70;75.70
70079;DHT22;57451;52.496;13.456;2022-12-07T02:57:47;2.80;75.40
70079;DHT22;57451;52.496;13.456;2022-12-07T03:00:19;2.70;75.30
70079;DHT22;57451;52.496;13.456;2022-12-07T03:02:53;2.70;75.80
70079;DHT22;57451;52.496;13.456;2022-12-07T03:05:34;2.70;75.80
70079;DHT22;57451;52.496;13.456;2022-12-07T03:08:07;2.60;75.90
70079;DHT22;57451;52.496;13.456;2022-12-07T03:10:45;2.60;76.00
70079;DHT22;57451;52.496;13.456;2022-12-07T03:13:19;2.60;76.10
70079;DHT22;57451;52.496;13.456;2022-12-07T03:15:55;2.60;75.90
70079;DHT22;57451;52.496;13.456;2022-12-07T03:18:29;2.60;76.10
70079;DHT22;57451;52.496;13.456;2022-12-07T03:21:00;2.60;76.20
70079;DHT22;57451;52.496;13.456;2022-12-07T03:23:32;2.70;76.20
70079;DHT22;57451;52.496;13.456;2022-12-07T03:26:01;2.60;76.10
70079;DHT22;57451;52.496;13.456;2022-12-07T03:28:33;2.60;76.20
70079;DHT22;57451;52.496;13.456;2022-12-07T03:31:06;2.60;76.10
70079;DHT22;57451;52.496;13.456;2022-12-07T03:33:39;2.60;76.40
70079;DHT22;57451;52.496;13.456;2022-12-07T03:36:13;2.60;76.40
70079;DHT22;57451;52.496;13.456;2022-12-07T03:38:45;2.50;76.70
70079;DHT22;57451;52.496;13.456;2022-12-07T03:41:17;2.60;76.70
70079;DHT22;57451;52.496;13.456;2022-12-07T03:43:46;2.70;76.40
70079;DHT22;57451;52.496;13.456;2022-12-07T03:46:19;2.60;76.40
70079;DHT22;57451;52.496;13.456;2022-12-07T03:48:56;2.60;76.50
70079;DHT22;57451;52.496;13.456;2022-12-07T03:51:30;2.60;76.60
70079;DHT22;57451;52.496;13.456;2022-12-07T03:54:02;2.60;76.50
70079;DHT22;57451;52.496;13.456;2022-12-07T03:56:33;2.60;76.70
70079;DHT22;57451;52.496;13.456;2022-12-07T03:59:01;2.60;76.80
70079;DHT22;57451;52.496;13.456;2022-12-07T04:01:31;2.60;76.80
70079;DHT22;57451;52.496;13.456;2022-12-07T04:03:59;2.60;76.90
70079;DHT22;57451;52.496;13.456;2022-12-07T04:06:26;2.60;77.00
70079;DHT22;57451;52.496;13.456;2022-12-07T04:08:53;2.60;77.00
70079;DHT22;57451;52.496;13.456;2022-12-07T04:11:20;2.60;77.20
70079;DHT22;57451;52.496;13.456;2022-12-07T04:13:48;2.50;77.40
70079;DHT22;57451;52.496;13.456;2022-12-07T04:16:35;2.50;77.90
70079;DHT22;57451;52.496;13.456;2022-12-07T04:19:10;2.50;78.10
70079;DHT22;57451;52.496;13.456;2022-12-07T04:21:38;2.50;78.00
70079;DHT22;57451;52.496;13.456;2022-12-07T04:24:05;2.50;78.30
70079;DHT22;57451;52.496;13.456;2022-12-07T04:26:33;2.50;78.40
70079;DHT22;57451;52.496;13.456;2022-12-07T04:29:00;2.50;78.20
70079;DHT22;57451;52.496;13.456;2022-12-07T04:31:35;2.40;78.50
70079;DHT22;57451;52.496;13.456;2022-12-07T04:34:03;2.50;78.50
70079;DHT22;57451;52.496;13.456;2022-12-07T04:36:31;2.50;78.70
70079;DHT22;57451;52.496;13.456;2022-12-07T04:38:58;2.50;78.80
70079;DHT22;57451;52.496;13.456;2022-12-07T04:41:25;2.40;78.90
70079;DHT22;57451;52.496;13.456;2022-12-07T04:43:58;2.40;79.20
70079;DHT22;57451;52.496;13.456;2022-12-07T04:46:26;2.40;79.50
70079;DHT22;57451;52.496;13.456;2022-12-07T04:48:55;2.40;79.80
70079;DHT22;57451;52.496;13.456;2022-12-07T04:51:24;2.40;79.60
70079;DHT22;57451;52.496;13.456;2022-12-07T04:53:53;2.40;79.70
70079;DHT22;57451;52.496;13.456;2022-12-07T04:56:20;2.40;80.10
70079;DHT22;57451;52.496;13.456;2022-12-07T04:58:48;2.40;80.20
70079;DHT22;57451;52.496;13.456;2022-12-07T05:01:17;2.30;80.40
70079;DHT22;57451;52.496;13.456;2022-12-07T05:03:44;2.30;80.60
70079;DHT22;57451;52.496;13.456;2022-12-07T05:06:14;2.30;80.80
70079;DHT22;57451;52.496;13.456;2022-12-07T05:08:42;2.40;81.00
70079;DHT22;57451;52.496;13.456;2022-12-07T05:11:10;2.30;81.20
70079;DHT22;57451;52.496;13.456;2022-12-07T05:13:57;2.20;81.50
70079;DHT22;57451;52.496;13.456;2022-12-07T05:16:25;2.30;81.80
70079;DHT22;57451;52.496;13.456;2022-12-07T05:18:52;2.40;81.60
70079;DHT22;57451;52.496;13.456;2022-12-07T05:21:21;2.40;81.20
70079;DHT22;57451;52.496;13.456;2022-12-07T05:23:49;2.50;81.30
70079;DHT22;57451;52.496;13.456;2022-12-07T05:26:16;2.50;81.10
70079;DHT22;57451;52.496;13.456;2022-12-07T05:28:43;2.40;81.30
70079;DHT22;57451;52.496;13.456;2022-12-07T05:31:10;2.50;81.50
70079;DHT22;57451;52.496;13.456;2022-12-07T05:33:38;2.50;81.40
70079;DHT22;57451;52.496;13.456;2022-12-07T05:36:05;2.50;81.60
70079;DHT22;57451;52.496;13.456;2022-12-07T05:38:35;2.40;81.70
70079;DHT22;57451;52.496;13.456;2022-12-07T05:41:03;2.50;81.90
70079;DHT22;57451;52.496;13.456;2022-12-07T05:43:31;2.50;82.00
70079;DHT22;57451;52.496;13.456;2022-12-07T05:45:59;2.50;82.00
70079;DHT22;57451;52.496;13.456;2022-12-07T05:48:26;2.60;82.00
70079;DHT22;57451;52.496;13.456;2022-12-07T05:50:53;2.70;81.80
70079;DHT22;57451;52.496;13.456;2022-12-07T05:53:21;2.70;81.60
70079;DHT22;57451;52.496;13.456;2022-12-07T05:55:52;2.60;82.00
70079;DHT22;57451;52.496;13.456;2022-12-07T05:58:19;2.60;82.10
70079;DHT22;57451;52.496;13.456;2022-12-07T06:01:05;2.70;82.20
70079;DHT22;57451;52.496;13.456;2022-12-07T06:03:32;2.70;82.40
70079;DHT22;57451;52.496;13.456;2022-12-07T06:06:00;2.70;82.60
70079;DHT22;57451;52.496;13.456;2022-12-07T06:08:27;2.70;82.30
70079;DHT22;57451;52.496;13.456;2022-12-07T06:10:56;2.80;82.60
70079;DHT22;57451;52.496;13.456;2022-12-07T06:13:42;2.80;82.50
70079;DHT22;57451;52.496;13.456;2022-12-07T06:16:13;2.80;82.60
70079;DHT22;57451;52.496;13.456;2022-12-07T06:18:40;2.80;82.90
70079;DHT22;57451;52.496;13.456;2022-12-07T06:21:08;2.80;82.90
70079;DHT22;57451;52.496;13.456;2022-12-07T06:23:35;2.80;83.20
70079;DHT22;57451;52.496;13.456;2022-12-07T06:26:04;2.80;83.30
70079;DHT22;57451;52.496;13.456;2022-12-07T06:28:31;2.90;83.20
70079;DHT22;57451;52.496;13.456;2022-12-07T06:30:58;2.90;83.10
70079;DHT22;57451;52.496;13.456;2022-12-07T06:33:26;2.90;83.10
70079;DHT22;57451;52.496;13.456;2022-12-07T06:35:54;2.90;83.00
70079;DHT22;57451;52.496;13.456;2022-12-07T06:38:21;2.90;83.10
70079;DHT22;57451;52.496;13.456;2022-12-07T06:40:48;2.90;83.20
70079;DHT22;57451;52.496;13.456;2022-12-07T06:43:17;2.90;83.40
70079;DHT22;57451;52.496;13.456;2022-12-07T06:45:44;2.90;83.50
70079;DHT22;57451;52.496;13.456;2022-12-07T06:48:12;2.90;83.50
70079;DHT22;57451;52.496;13.456;2022-12-07T06:50:39;2.90;83.50
70079;DHT22;57451;52.496;13.456;2022-12-07T06:53:08;2.90;83.50
70079;DHT22;57451;52.496;13.456;2022-12-07T06:55:36;2.80;83.90
70079;DHT22;57451;52.496;13.456;2022-12-07T06:58:03;2.80;84.20
70079;DHT22;57451;52.496;13.456;2022-12-07T07:00:32;2.90;84.10
70079;DHT22;57451;52.496;13.456;2022-12-07T07:02:59;3.00;84.00
70079;DHT22;57451;52.496;13.456;2022-12-07T07:05:26;3.00;84.10
70079;DHT22;57451;52.496;13.456;2022-12-07T07:07:53;3.10;84.00
70079;DHT22;57451;52.496;13.456;2022-12-07T07:10:41;3.10;83.80
70079;DHT22;57451;52.496;13.456;2022-12-07T07:13:09;3.10;83.80
70079;DHT22;57451;52.496;13.456;2022-12-07T07:15:38;3.10;83.80
70079;DHT22;57451;52.496;13.456;2022-12-07T07:18:11;3.10;84.10
70079;DHT22;57451;52.496;13.456;2022-12-07T07:20:39;3.10;84.20
70079;DHT22;57451;52.496;13.456;2022-12-07T07:23:06;3.20;84.20
70079;DHT22;57451;52.496;13.456;2022-12-07T07:25:34;3.10;84.50
70079;DHT22;57451;52.496;13.456;2022-12-07T07:28:01;3.20;85.20
70079;DHT22;57451;52.496;13.456;2022-12-07T07:30:29;3.20;85.20
70079;DHT22;57451;52.496;13.456;2022-12-07T07:32:58;3.30;85.30
70079;DHT22;57451;52.496;13.456;2022-12-07T07:35:26;3.30;85.30
70079;DHT22;57451;52.496;13.456;2022-12-07T07:37:54;3.30;85.00
70079;DHT22;57451;52.496;13.456;2022-12-07T07:40:22;3.40;84.70
70079;DHT22;57451;52.496;13.456;2022-12-07T07:42:50;3.40;84.50
70079;DHT22;57451;52.496;13.456;2022-12-07T07:45:18;3.40;84.20
70079;DHT22;57451;52.496;13.456;2022-12-07T07:47:45;3.30;84.10
70079;DHT22;57451;52.496;13.456;2022-12-07T07:50:14;3.40;83.80
70079;DHT22;57451;52.496;13.456;2022-12-07T07:52:42;3.30;83.60
70079;DHT22;57451;52.496;13.456;2022-12-07T07:55:10;3.30;83.50
70079;DHT22;57451;52.496;13.456;2022-12-07T07:57:38;3.40;83.40
70079;DHT22;57451;52.496;13.456;2022-12-07T08:00:10;3.40;83.00
70079;DHT22;57451;52.496;13.456;2022-12-07T08:02:41;3.50;83.10
70079;DHT22;57451;52.496;13.456;2022-12-07T08:05:11;3.40;83.00
70079;DHT22;57451;52.496;13.456;2022-12-07T08:07:40;3.40;82.90
70079;DHT22;57451;52.496;13.456;2022-12-07T08:10:10;3.50;82.90
70079;DHT22;57451;52.496;13.456;2022-12-07T08:12:38;3.50;82.70
70079;DHT22;57451;52.496;13.456;2022-12-07T08:15:26;3.60;82.70
70079;DHT22;57451;52.496;13.456;2022-12-07T08:17:54;3.50;82.00
70079;DHT22;57451;52.496;13.456;2022-12-07T08:20:21;3.50;81.80
70079;DHT22;57451;52.496;13.456;2022-12-07T08:22:50;3.50;81.80
70079;DHT22;57451;52.496;13.456;2022-12-07T08:25:17;3.60;81.70
70079;DHT22;57451;52.496;13.456;2022-12-07T08:27:45;3.60;81.50
70079;DHT22;57451;52.496;13.456;2022-12-07T08:30:12;3.70;81.50
70079;DHT22;57451;52.496;13.456;2022-12-07T08:32:40;3.60;81.10
70079;DHT22;57451;52.496;13.456;2022-12-07T08:35:08;3.60;81.20
70079;DHT22;57451;52.496;13.456;2022-12-07T08:37:35;3.60;80.80
70079;DHT22;57451;52.496;13.456;2022-12-07T08:40:05;3.60;81.10
70079;DHT22;57451;52.496;13.456;2022-12-07T08:42:33;3.60;81.10
70079;DHT22;57451;52.496;13.456;2022-12-07T08:45:09;3.70;80.60
70079;DHT22;57451;52.496;13.456;2022-12-07T08:47:40;3.70;80.60
70079;DHT22;57451;52.496;13.456;2022-12-07T08:50:10;3.70;79.80
70079;DHT22;57451;52.496;13.456;2022-12-07T08:52:39;3.70;79.70
70079;DHT22;57451;52.496;13.456;2022-12-07T08:55:09;3.70;79.60
70079;DHT22;57451;52.496;13.456;2022-12-07T08:57:37;3.70;78.30
70079;DHT22;57451;52.496;13.456;2022-12-07T09:00:06;3.70;76.80
70079;DHT22;57451;52.496;13.456;2022-12-07T09:02:34;3.60;77.00
70079;DHT22;57451;52.496;13.456;2022-12-07T09:05:03;3.70;76.90
70079;DHT22;57451;52.496;13.456;2022-12-07T09:07:32;3.70;76.50
70079;DHT22;57451;52.496;13.456;2022-12-07T09:10:00;3.70;75.90
70079;DHT22;57451;52.496;13.456;2022-12-07T09:12:30;3.70;74.00
70079;DHT22;57451;52.496;13.456;2022-12-07T09:14:57;3.60;74.30
70079;DHT22;57451;52.496;13.456;2022-12-07T09:17:24;3.60;74.00
70079;DHT22;57451;52.496;13.456;2022-12-07T09:19:52;3.70;73.70
70079;DHT22;57451;52.496;13.456;2022-12-07T09:22:19;3.60;73.40
70079;DHT22;57451;52.496;13.456;2022-12-07T09:24:46;3.60;73.40
70079;DHT22;57451;52.496;13.456;2022-12-07T09:27:14;3.60;73.40
70079;DHT22;57451;52.496;13.456;2022-12-07T09:29:42;3.60;72.50
70079;DHT22;57451;52.496;13.456;2022-12-07T09:32:10;3.70;71.90
70079;DHT22;57451;52.496;13.456;2022-12-07T09:34:38;3.70;73.10
70079;DHT22;57451;52.496;13.456;2022-12-07T09:37:05;3.70;72.70
70079;DHT22;57451;52.496;13.456;2022-12-07T09:39:33;3.70;72.80
70079;DHT22;57451;52.496;13.456;2022-12-07T09:42:03;3.70;72.00
70079;DHT22;57451;52.496;13.456;2022-12-07T09:44:31;3.70;72.50
70079;DHT22;57451;52.496;13.456;2022-12-07T09:47:01;3.70;72.70
70079;DHT22;57451;52.496;13.456;2022-12-07T09:49:30;3.70;72.30
70079;DHT22;57451;52.496;13.456;2022-12-07T09:52:01;3.70;72.20
70079;DHT22;57451;52.496;13.456;2022-12-07T09:54:29;3.70;72.40
70079;DHT22;57451;52.496;13.456;2022-12-07T09:56:58;3.70;72.30
70079;DHT22;57451;52.496;13.456;2022-12-07T09:59:26;3.60;71.40
70079;DHT22;57451;52.496;13.456;2022-12-07T10:02:23;3.60;72.10
70079;DHT22;57451;52.496;13.456;2022-12-07T10:04:51;3.60;71.50
70079;DHT22;57451;52.496;13.456;2022-12-07T10:07:18;3.50;71.30
70079;DHT22;57451;52.496;13.456;2022-12-07T10:09:46;3.50;70.90
70079;DHT22;57451;52.496;13.456;2022-12-07T10:12:13;3.50;71.60
70079;DHT22;57451;52.496;13.456;2022-12-07T10:14:53;3.60;71.30
70079;DHT22;57451;52.496;13.456;2022-12-07T10:17:39;3.60;71.20
70079;DHT22;57451;52.496;13.456;2022-12-07T10:20:17;3.60;71.20
70079;DHT22;57451;52.496;13.456;2022-12-07T10:23:00;3.50;71.20
70079;DHT22;57451;52.496;13.456;2022-12-07T10:25:30;3.50;71.40
70079;DHT22;57451;52.496;13.456;2022-12-07T10:28:01;3.60;71.20
70079;DHT22;57451;52.496;13.456;2022-12-07T10:30:30;3.50;70.80
70079;DHT22;57451;52.496;13.456;2022-12-07T10:33:00;3.60;71.60
70079;DHT22;57451;52.496;13.456;2022-12-07T10:35:28;3.50;71.10
70079;DHT22;57451;52.496;13.456;2022-12-07T10:37:57;3.50;71.40
70079;DHT22;57451;52.496;13.456;2022-12-07T10:40:28;3.50;71.20
70079;DHT22;57451;52.496;13.456;2022-12-07T10:43:04;3.60;71.80
70079;DHT22;57451;52.496;13.456;2022-12-07T10:45:32;3.80;72.10
70079;DHT22;57451;52.496;13.456;2022-12-07T10:48:15;3.80;71.80
70079;DHT22;57451;52.496;13.456;2022-12-07T10:50:57;3.90;71.70
70079;DHT22;57451;52.496;13.456;2022-12-07T10:53:43;4.00;71.60
70079;DHT22;57451;52.496;13.456;2022-12-07T10:56:42;4.00;71.00
70079;DHT22;57451;52.496;13.456;2022-12-07T10:59:34;4.10;71.20
70079;DHT22;57451;52.496;13.456;2022-12-07T11:02:17;4.20;71.40
70079;DHT22;57451;52.496;13.456;2022-12-07T11:04:59;4.30;71.30
70079;DHT22;57451;52.496;13.456;2022-12-07T11:07:38;4.30;70.60
70079;DHT22;57451;52.496;13.456;2022-12-07T11:10:14;4.30;71.20
70079;DHT22;57451;52.496;13.456;2022-12-07T11:15:55;4.30;70.70
70079;DHT22;57451;52.496;13.456;2022-12-07T11:18:29;4.30;71.10
70079;DHT22;57451;52.496;13.456;2022-12-07T11:21:07;4.30;71.50
70079;DHT22;57451;52.496;13.456;2022-12-07T11:23:46;4.40;71.80
70079;DHT22;57451;52.496;13.456;2022-12-07T11:26:25;4.40;71.30
70079;DHT22;57451;52.496;13.456;2022-12-07T11:29:08;4.40;71.50
70079;DHT22;57451;52.496;13.456;2022-12-07T11:31:52;4.30;71.30
70079;DHT22;57451;52.496;13.456;2022-12-07T11:34:27;4.20;71.50
70079;DHT22;57451;52.496;13.456;2022-12-07T11:36:58;4.20;71.50
70079;DHT22;57451;52.496;13.456;2022-12-07T11:39:33;4.20;72.00
70079;DHT22;57451;52.496;13.456;2022-12-07T11:42:06;4.30;71.80
70079;DHT22;57451;52.496;13.456;2022-12-07T11:44:43;4.20;71.30
70079;DHT22;57451;52.496;13.456;2022-12-07T11:47:16;4.20;72.20
70079;DHT22;57451;52.496;13.456;2022-12-07T11:49:49;4.20;72.00
70079;DHT22;57451;52.496;13.456;2022-12-07T11:52:27;4.20;71.70
70079;DHT22;57451;52.496;13.456;2022-12-07T11:54:58;4.20;71.90
70079;DHT22;57451;52.496;13.456;2022-12-07T11:57:31;4.20;71.80
70079;DHT22;57451;52.496;13.456;2022-12-07T12:00:03;4.30;72.50
70079;DHT22;57451;52.496;13.456;2022-12-07T12:02:36;4.40;71.70
70079;DHT22;57451;52.496;13.456;2022-12-07T12:05:12;4.20;71.60
70079;DHT22;57451;52.496;13.456;2022-12-07T12:07:42;4.20;72.40
70079;DHT22;57451;52.496;13.456;2022-12-07T12:10:41;4.20;72.60
70079;DHT22;57451;52.496;13.456;2022-12-07T12:13:27;4.30;72.40
70079;DHT22;57451;52.496;13.456;2022-12-07T12:16:44;4.40;72.20
70079;DHT22;57451;52.496;13.456;2022-12-07T12:19:24;4.40;72.10
70079;DHT22;57451;52.496;13.456;2022-12-07T12:21:56;4.40;72.20
70079;DHT22;57451;52.496;13.456;2022-12-07T12:24:28;4.40;72.00
70079;DHT22;57451;52.496;13.456;2022-12-07T12:27:02;4.40;72.00
70079;DHT22;57451;52.496;13.456;2022-12-07T12:29:34;4.40;72.00
70079;DHT22;57451;52.496;13.456;2022-12-07T12:32:07;4.50;72.20
70079;DHT22;57451;52.496;13.456;2022-12-07T12:34:40;4.50;72.30
70079;DHT22;57451;52.496;13.456;2022-12-07T12:37:42;4.50;72.00
70079;DHT22;57451;52.496;13.456;2022-12-07T12:43:42;4.50;71.90
70079;DHT22;57451;52.496;13.456;2022-12-07T12:49:58;4.40;71.60
70079;DHT22;57451;52.496;13.456;2022-12-07T12:53:00;4.40;71.80
70079;DHT22;57451;52.496;13.456;2022-12-07T12:58:44;4.40;72.60
70079;DHT22;57451;52.496;13.456;2022-12-07T13:01:41;4.50;72.60
70079;DHT22;57451;52.496;13.456;2022-12-07T13:04:47;4.50;72.10
70079;DHT22;57451;52.496;13.456;2022-12-07T13:10:35;4.50;72.60
70079;DHT22;57451;52.496;13.456;2022-12-07T13:13:05;4.60;72.50
70079;DHT22;57451;52.496;13.456;2022-12-07T13:15:54;4.60;72.50
70079;DHT22;57451;52.496;13.456;2022-12-07T13:18:24;4.70;72.30
70079;DHT22;57451;52.496;13.456;2022-12-07T13:20:53;4.70;72.10
70079;DHT22;57451;52.496;13.456;2022-12-07T13:23:28;4.70;72.30
70079;DHT22;57451;52.496;13.456;2022-12-07T13:26:15;4.70;72.20
70079;DHT22;57451;52.496;13.456;2022-12-07T13:28:46;4.70;72.10
70079;DHT22;57451;52.496;13.456;2022-12-07T13:31:30;4.60;72.20
70079;DHT22;57451;52.496;13.456;2022-12-07T13:33:59;4.70;72.40
70079;DHT22;57451;52.496;13.456;2022-12-07T13:36:29;4.60;72.10
70079;DHT22;57451;52.496;13.456;2022-12-07T13:38:59;4.60;72.20
70079;DHT22;57451;52.496;13.456;2022-12-07T13:41:28;4.60;72.60
70079;DHT22;57451;52.496;13.456;2022-12-07T13:44:01;4.70;72.70
70079;DHT22;57451;52.496;13.456;2022-12-07T13:46:44;4.70;72.30
70079;DHT22;57451;52.496;13.456;2022-12-07T13:49:20;4.80;72.50
70079;DHT22;57451;52.496;13.456;2022-12-07T13:51:49;4.80;72.00
70079;DHT22;57451;52.496;13.456;2022-12-07T13:54:17;4.70;72.30
70079;DHT22;57451;52.496;13.456;2022-12-07T13:56:48;4.80;72.10
70079;DHT22;57451;52.496;13.456;2022-12-07T13:59:18;4.70;71.30
70079;DHT22;57451;52.496;13.456;2022-12-07T14:01:49;4.50;72.00
70079;DHT22;57451;52.496;13.456;2022-12-07T14:04:19;4.40;72.50
70079;DHT22;57451;52.496;13.456;2022-12-07T14:06:48;4.50;72.60
70079;DHT22;57451;52.496;13.456;2022-12-07T14:09:19;4.50;72.20
70079;DHT22;57451;52.496;13.456;2022-12-07T14:11:48;4.40;72.00
70079;DHT22;57451;52.496;13.456;2022-12-07T14:14:18;4.50;72.10
70079;DHT22;57451;52.496;13.456;2022-12-07T14:16:59;4.40;72.30
70079;DHT22;57451;52.496;13.456;2022-12-07T14:19:48;4.40;72.50
70079;DHT22;57451;52.496;13.456;2022-12-07T14:22:22;4.40;72.70
70079;DHT22;57451;52.496;13.456;2022-12-07T14:24:51;4.40;71.80
70079;DHT22;57451;52.496;13.456;2022-12-07T14:27:30;4.40;72.10
70079;DHT22;57451;52.496;13.456;2022-12-07T14:29:57;4.40;72.10
70079;DHT22;57451;52.496;13.456;2022-12-07T14:32:27;4.40;72.20
70079;DHT22;57451;52.496;13.456;2022-12-07T14:34:57;4.40;72.30
70079;DHT22;57451;52.496;13.456;2022-12-07T14:37:27;4.40;72.20
70079;DHT22;57451;52.496;13.456;2022-12-07T14:39:54;4.30;72.50
70079;DHT22;57451;52.496;13.456;2022-12-07T14:42:23;4.30;72.90
70079;DHT22;57451;52.496;13.456;2022-12-07T14:44:51;4.30;73.00
70079;DHT22;57451;52.496;13.456;2022-12-07T14:47:19;4.30;73.20
70079;DHT22;57451;52.496;13.456;2022-12-07T14:50:10;4.30;73.30
70079;DHT22;57451;52.496;13.456;2022-12-07T14:52:39;4.20;73.20
70079;DHT22;57451;52.496;13.456;2022-12-07T14:55:28;4.30;73.20
70079;DHT22;57451;52.496;13.456;2022-12-07T14:57:56;4.20;73.20
70079;DHT22;57451;52.496;13.456;2022-12-07T15:00:25;4.20;73.50
70079;DHT22;57451;52.496;13.456;2022-12-07T15:02:53;4.20;73.40
70079;DHT22;57451;52.496;13.456;2022-12-07T15:05:22;4.20;73.40
70079;DHT22;57451;52.496;13.456;2022-12-07T15:07:51;4.10;73.60
70079;DHT22;57451;52.496;13.456;2022-12-07T15:10:21;4.10;74.00
70079;DHT22;57451;52.496;13.456;2022-12-07T15:12:50;4.10;73.90
70079;DHT22;57451;52.496;13.456;2022-12-07T15:15:18;4.10;73.80
70079;DHT22;57451;52.496;13.456;2022-12-07T15:17:45;4.10;73.80
70079;DHT22;57451;52.496;13.456;2022-12-07T15:20:14;4.00;73.60
70079;DHT22;57451;52.496;13.456;2022-12-07T15:22:45;3.90;74.00
70079;DHT22;57451;52.496;13.456;2022-12-07T15:25:13;3.90;74.00
70079;DHT22;57451;52.496;13.456;2022-12-07T15:27:40;3.90;73.90
70079;DHT22;57451;52.496;13.456;2022-12-07T15:30:08;3.80;74.10
70079;DHT22;57451;52.496;13.456;2022-12-07T15:32:35;3.70;74.20
70079;DHT22;57451;52.496;13.456;2022-12-07T15:35:03;3.70;74.30
70079;DHT22;57451;52.496;13.456;2022-12-07T15:37:31;3.70;74.50
70079;DHT22;57451;52.496;13.456;2022-12-07T15:40:00;3.60;74.70
70079;DHT22;57451;52.496;13.456;2022-12-07T15:42:34;3.60;74.70
70079;DHT22;57451;52.496;13.456;2022-12-07T15:45:02;3.60;74.70
70079;DHT22;57451;52.496;13.456;2022-12-07T15:47:35;3.60;74.90
70079;DHT22;57451;52.496;13.456;2022-12-07T15:50:23;3.60;75.00
70079;DHT22;57451;52.496;13.456;2022-12-07T15:52:51;3.60;75.30
70079;DHT22;57451;52.496;13.456;2022-12-07T15:55:19;3.60;75.20
70079;DHT22;57451;52.496;13.456;2022-12-07T15:57:47;3.60;75.30
70079;DHT22;57451;52.496;13.456;2022-12-07T16:00:15;3.70;75.10
70079;DHT22;57451;52.496;13.456;2022-12-07T16:02:43;3.70;75.10
70079;DHT22;57451;52.496;13.456;2022-12-07T16:05:10;3.70;74.90
70079;DHT22;57451;52.496;13.456;2022-12-07T16:07:37;3.50;75.10
70079;DHT22;57451;52.496;13.456;2022-12-07T16:10:06;3.50;75.30
70079;DHT22;57451;52.496;13.456;2022-12-07T16:12:35;3.50;75.40
70079;DHT22;57451;52.496;13.456;2022-12-07T16:15:03;3.50;75.30
70079;DHT22;57451;52.496;13.456;2022-12-07T16:17:31;3.50;75.00
70079;DHT22;57451;52.496;13.456;2022-12-07T16:19:58;3.40;75.30